sensor_id;sensor_type;location;lat;lon;timestamp;temperature;humidity
67279;DHT22;54193;53.746;10.058;2023-10-19T00:00:33;7.92;80.66
67279;DHT22;54193;53.746;10.058;2023-10-19T00:03:19;7.89;80.80
67279;DHT22;54193;53.746;10.058;2023-10-19T00:06:05;7.86;80.83
67279;DHT22;54193;53.746;10.058;2023-10-19T00:08:50;7.89;80.79
67279;DHT22;54193;53.746;10.058;2023-10-19T00:11:38;7.83;81.01
67279;DHT22;54193;53.746;10.058;2023-10-19T00:14:26;7.86;80.98
67279;DHT22;54193;53.746;10.058;2023-10-19T00:17:11;7.86;80.87
67279;DHT22;54193;53.746;10.058;2023-10-19T00:19:58;7.86;81.16
67279;DHT22;54193;53.746;10.058;2023-10-19T00:23:03;7.86;81.01
67279;DHT22;54193;53.746;10.058;2023-10-19T00:25:51;7.86;80.98
67279;DHT22;54193;53.746;10.058;2023-10-19T00:28:36;7.87;81.14
67279;DHT22;54193;53.746;10.058;2023-10-19T00:31:25;7.85;80.80
67279;DHT22;54193;53.746;10.058;2023-10-19T00:34:14;7.89;81.10
67279;DHT22;54193;53.746;10.058;2023-10-19T00:36:59;7.82;81.06
67279;DHT22;54193;53.746;10.058;2023-10-19T00:39:54;7.89;80.83
67279;DHT22;54193;53.746;10.058;2023-10-19T00:42:40;7.90;80.61
67279;DHT22;54193;53.746;10.058;2023-10-19T00:45:31;7.86;80.74
67279;DHT22;54193;53.746;10.058;2023-10-19T00:48:19;7.83;80.79
67279;DHT22;54193;53.746;10.058;2023-10-19T00:51:08;7.82;81.27
67279;DHT22;54193;53.746;10.058;2023-10-19T00:53:56;7.82;81.13
67279;DHT22;54193;53.746;10.058;2023-10-19T00:56:46;7.79;81.19
67279;DHT22;54193;53.746;10.058;2023-10-19T00:59:38;7.79;80.89
67279;DHT22;54193;53.746;10.058;2023-10-19T01:02:28;7.81;80.82
67279;DHT22;54193;53.746;10.058;2023-10-19T01:05:14;7.89;80.90
67279;DHT22;54193;53.746;10.058;2023-10-19T01:08:00;7.86;80.86
67279;DHT22;54193;53.746;10.058;2023-10-19T01:10:48;7.82;80.87
67279;DHT22;54193;53.746;10.058;2023-10-19T01:13:38;7.89;80.97
67279;DHT22;54193;53.746;10.058;2023-10-19T01:16:24;7.92;80.23
67279;DHT22;54193;53.746;10.058;2023-10-19T01:19:10;7.85;81.05
67279;DHT22;54193;53.746;10.058;2023-10-19T01:21:56;7.90;81.25
67279;DHT22;54193;53.746;10.058;2023-10-19T01:24:48;7.86;81.39
67279;DHT22;54193;53.746;10.058;2023-10-19T01:27:34;7.82;81.67
67279;DHT22;54193;53.746;10.058;2023-10-19T01:30:19;7.83;81.45
67279;DHT22;54193;53.746;10.058;2023-10-19T01:33:05;7.87;81.37
67279;DHT22;54193;53.746;10.058;2023-10-19T01:35:58;7.90;81.32
67279;DHT22;54193;53.746;10.058;2023-10-19T01:39:22;7.90;81.28
67279;DHT22;54193;53.746;10.058;2023-10-19T01:42:07;7.92;81.14
67279;DHT22;54193;53.746;10.058;2023-10-19T01:44:54;7.92;81.35
67279;DHT22;54193;53.746;10.058;2023-10-19T01:47:39;7.90;81.49
67279;DHT22;54193;53.746;10.058;2023-10-19T01:50:25;7.87;81.32
67279;DHT22;54193;53.746;10.058;2023-10-19T01:53:13;7.89;81.02
67279;DHT22;54193;53.746;10.058;2023-10-19T01:56:00;7.90;81.04
67279;DHT22;54193;53.746;10.058;2023-10-19T01:58:47;7.90;81.38
67279;DHT22;54193;53.746;10.058;2023-10-19T02:01:33;7.92;81.27
67279;DHT22;54193;53.746;10.058;2023-10-19T02:04:18;7.93;81.07
67279;DHT22;54193;53.746;10.058;2023-10-19T02:07:07;7.96;81.21
67279;DHT22;54193;53.746;10.058;2023-10-19T02:09:58;7.96;80.67
67279;DHT22;54193;53.746;10.058;2023-10-19T02:12:43;8.03;80.73
67279;DHT22;54193;53.746;10.058;2023-10-19T02:15:35;8.00;81.07
67279;DHT22;54193;53.746;10.058;2023-10-19T02:18:20;7.96;80.90
67279;DHT22;54193;53.746;10.058;2023-10-19T02:21:07;7.96;81.12
67279;DHT22;54193;53.746;10.058;2023-10-19T02:23:53;7.99;81.27
67279;DHT22;54193;53.746;10.058;2023-10-19T02:26:41;8.02;81.01
67279;DHT22;54193;53.746;10.058;2023-10-19T02:29:27;8.02;81.21
67279;DHT22;54193;53.746;10.058;2023-10-19T02:32:13;8.06;80.91
67279;DHT22;54193;53.746;10.058;2023-10-19T02:34:59;8.04;81.32
67279;DHT22;54193;53.746;10.058;2023-10-19T02:37:46;8.07;81.25
67279;DHT22;54193;53.746;10.058;2023-10-19T02:40:32;8.10;81.15
67279;DHT22;54193;53.746;10.058;2023-10-19T02:43:17;8.06;81.14
67279;DHT22;54193;53.746;10.058;2023-10-19T02:46:03;8.10;81.34
67279;DHT22;54193;53.746;10.058;2023-10-19T02:48:50;8.09;81.01
67279;DHT22;54193;53.746;10.058;2023-10-19T02:51:35;8.07;80.95
67279;DHT22;54193;53.746;10.058;2023-10-19T02:54:24;8.13;80.92
67279;DHT22;54193;53.746;10.058;2023-10-19T02:57:13;8.16;80.75
67279;DHT22;54193;53.746;10.058;2023-10-19T02:59:59;8.11;80.83
67279;DHT22;54193;53.746;10.058;2023-10-19T03:02:47;8.11;80.10
67279;DHT22;54193;53.746;10.058;2023-10-19T03:05:33;8.19;80.27
67279;DHT22;54193;53.746;10.058;2023-10-19T03:08:22;8.17;80.21
67279;DHT22;54193;53.746;10.058;2023-10-19T03:11:09;8.20;79.88
67279;DHT22;54193;53.746;10.058;2023-10-19T03:13:58;8.21;80.29
67279;DHT22;54193;53.746;10.058;2023-10-19T03:16:44;8.23;79.84
67279;DHT22;54193;53.746;10.058;2023-10-19T03:19:31;8.23;79.89
67279;DHT22;54193;53.746;10.058;2023-10-19T03:22:16;8.23;79.85
67279;DHT22;54193;53.746;10.058;2023-10-19T03:25:02;8.23;79.74
67279;DHT22;54193;53.746;10.058;2023-10-19T03:28:18;8.19;80.00
67279;DHT22;54193;53.746;10.058;2023-10-19T03:31:04;8.26;79.75
67279;DHT22;54193;53.746;10.058;2023-10-19T03:33:51;8.28;79.85
67279;DHT22;54193;53.746;10.058;2023-10-19T03:36:39;8.20;79.91
67279;DHT22;54193;53.746;10.058;2023-10-19T03:39:25;8.26;79.75
67279;DHT22;54193;53.746;10.058;2023-10-19T03:42:11;8.24;79.83
67279;DHT22;54193;53.746;10.058;2023-10-19T03:44:59;8.23;80.07
67279;DHT22;54193;53.746;10.058;2023-10-19T03:47:53;8.24;79.91
67279;DHT22;54193;53.746;10.058;2023-10-19T03:50:41;8.28;79.78
67279;DHT22;54193;53.746;10.058;2023-10-19T03:53:28;8.28;79.82
67279;DHT22;54193;53.746;10.058;2023-10-19T03:56:13;8.28;79.96
67279;DHT22;54193;53.746;10.058;2023-10-19T03:58:59;8.26;80.10
67279;DHT22;54193;53.746;10.058;2023-10-19T04:01:45;8.26;79.90
67279;DHT22;54193;53.746;10.058;2023-10-19T04:04:31;8.33;79.84
67279;DHT22;54193;53.746;10.058;2023-10-19T04:07:17;8.27;79.69
67279;DHT22;54193;53.746;10.058;2023-10-19T04:10:06;8.36;79.50
67279;DHT22;54193;53.746;10.058;2023-10-19T04:12:51;8.36;79.64
67279;DHT22;54193;53.746;10.058;2023-10-19T04:15:37;8.27;79.60
67279;DHT22;54193;53.746;10.058;2023-10-19T04:18:23;8.28;79.75
67279;DHT22;54193;53.746;10.058;2023-10-19T04:21:11;8.21;79.90
67279;DHT22;54193;53.746;10.058;2023-10-19T04:23:56;8.21;80.33
67279;DHT22;54193;53.746;10.058;2023-10-19T04:26:43;8.11;81.78
67279;DHT22;54193;53.746;10.058;2023-10-19T04:29:29;8.03;82.67
67279;DHT22;54193;53.746;10.058;2023-10-19T04:32:16;7.93;83.89
67279;DHT22;54193;53.746;10.058;2023-10-19T04:35:10;7.76;84.49
67279;DHT22;54193;53.746;10.058;2023-10-19T04:37:58;7.68;85.88
67279;DHT22;54193;53.746;10.058;2023-10-19T04:40:45;7.59;87.08
67279;DHT22;54193;53.746;10.058;2023-10-19T04:43:30;7.48;86.80
67279;DHT22;54193;53.746;10.058;2023-10-19T04:46:16;7.45;87.78
67279;DHT22;54193;53.746;10.058;2023-10-19T04:49:04;7.41;88.36
67279;DHT22;54193;53.746;10.058;2023-10-19T04:51:49;7.35;88.05
67279;DHT22;54193;53.746;10.058;2023-10-19T04:54:35;7.32;88.52
67279;DHT22;54193;53.746;10.058;2023-10-19T04:57:22;7.34;88.88
67279;DHT22;54193;53.746;10.058;2023-10-19T05:00:09;7.26;88.99
67279;DHT22;54193;53.746;10.058;2023-10-19T05:02:58;7.24;89.07
67279;DHT22;54193;53.746;10.058;2023-10-19T05:05:44;7.28;89.35
67279;DHT22;54193;53.746;10.058;2023-10-19T05:08:30;7.26;89.72
67279;DHT22;54193;53.746;10.058;2023-10-19T05:11:18;7.24;90.04
67279;DHT22;54193;53.746;10.058;2023-10-19T05:14:04;7.21;90.15
67279;DHT22;54193;53.746;10.058;2023-10-19T05:16:50;7.21;90.28
67279;DHT22;54193;53.746;10.058;2023-10-19T05:19:37;7.20;90.62
67279;DHT22;54193;53.746;10.058;2023-10-19T05:22:23;7.17;90.71
67279;DHT22;54193;53.746;10.058;2023-10-19T05:25:10;7.13;90.71
67279;DHT22;54193;53.746;10.058;2023-10-19T05:27:57;7.10;90.77
67279;DHT22;54193;53.746;10.058;2023-10-19T05:30:44;7.07;90.93
67279;DHT22;54193;53.746;10.058;2023-10-19T05:33:30;7.13;91.34
67279;DHT22;54193;53.746;10.058;2023-10-19T05:36:18;7.16;91.36
67279;DHT22;54193;53.746;10.058;2023-10-19T05:39:04;7.14;91.07
67279;DHT22;54193;53.746;10.058;2023-10-19T05:41:56;7.11;91.10
67279;DHT22;54193;53.746;10.058;2023-10-19T05:44:41;7.13;91.27
67279;DHT22;54193;53.746;10.058;2023-10-19T05:47:27;7.04;91.19
67279;DHT22;54193;53.746;10.058;2023-10-19T05:50:13;7.04;91.30
67279;DHT22;54193;53.746;10.058;2023-10-19T05:53:00;7.06;91.10
67279;DHT22;54193;53.746;10.058;2023-10-19T05:55:45;7.11;91.04
67279;DHT22;54193;53.746;10.058;2023-10-19T05:58:31;7.11;91.09
67279;DHT22;54193;53.746;10.058;2023-10-19T06:01:17;7.08;91.05
67279;DHT22;54193;53.746;10.058;2023-10-19T06:04:03;7.13;91.09
67279;DHT22;54193;53.746;10.058;2023-10-19T06:06:49;7.16;90.87
67279;DHT22;54193;53.746;10.058;2023-10-19T06:09:35;7.16;90.71
67279;DHT22;54193;53.746;10.058;2023-10-19T06:12:21;7.17;90.90
67279;DHT22;54193;53.746;10.058;2023-10-19T06:15:07;7.20;90.90
67279;DHT22;54193;53.746;10.058;2023-10-19T06:17:53;7.21;90.74
67279;DHT22;54193;53.746;10.058;2023-10-19T06:20:45;7.20;90.77
67279;DHT22;54193;53.746;10.058;2023-10-19T06:23:31;7.24;90.70
67279;DHT22;54193;53.746;10.058;2023-10-19T06:26:17;7.18;90.68
67279;DHT22;54193;53.746;10.058;2023-10-19T06:29:02;7.17;90.63
67279;DHT22;54193;53.746;10.058;2023-10-19T06:31:49;7.24;90.53
67279;DHT22;54193;53.746;10.058;2023-10-19T06:34:34;7.23;90.44
67279;DHT22;54193;53.746;10.058;2023-10-19T06:37:20;7.24;90.25
67279;DHT22;54193;53.746;10.058;2023-10-19T06:40:07;7.30;90.38
67279;DHT22;54193;53.746;10.058;2023-10-19T06:42:57;7.24;90.14
67279;DHT22;54193;53.746;10.058;2023-10-19T06:45:45;7.24;90.71
67279;DHT22;54193;53.746;10.058;2023-10-19T06:48:32;7.24;90.53
67279;DHT22;54193;53.746;10.058;2023-10-19T06:51:17;7.23;90.17
67279;DHT22;54193;53.746;10.058;2023-10-19T06:54:03;7.28;90.70
67279;DHT22;54193;53.746;10.058;2023-10-19T06:56:49;7.27;90.35
67279;DHT22;54193;53.746;10.058;2023-10-19T06:59:36;7.28;90.45
67279;DHT22;54193;53.746;10.058;2023-10-19T07:02:22;7.28;90.31
67279;DHT22;54193;53.746;10.058;2023-10-19T07:05:07;7.26;90.51
67279;DHT22;54193;53.746;10.058;2023-10-19T07:07:57;7.30;90.76
67279;DHT22;54193;53.746;10.058;2023-10-19T07:10:44;7.28;90.50
67279;DHT22;54193;53.746;10.058;2023-10-19T07:13:31;7.23;90.50
67279;DHT22;54193;53.746;10.058;2023-10-19T07:16:19;7.27;90.80
67279;DHT22;54193;53.746;10.058;2023-10-19T07:19:05;7.27;90.39
67279;DHT22;54193;53.746;10.058;2023-10-19T07:21:51;7.24;90.96
67279;DHT22;54193;53.746;10.058;2023-10-19T07:24:43;7.27;90.85
67279;DHT22;54193;53.746;10.058;2023-10-19T07:27:28;7.27;90.53
67279;DHT22;54193;53.746;10.058;2023-10-19T07:30:14;7.27;90.82
67279;DHT22;54193;53.746;10.058;2023-10-19T07:33:01;7.21;90.93
67279;DHT22;54193;53.746;10.058;2023-10-19T07:35:50;7.24;91.08
67279;DHT22;54193;53.746;10.058;2023-10-19T07:38:45;7.21;90.99
67279;DHT22;54193;53.746;10.058;2023-10-19T07:41:32;7.24;90.78
67279;DHT22;54193;53.746;10.058;2023-10-19T07:44:21;7.28;90.91
67279;DHT22;54193;53.746;10.058;2023-10-19T07:47:07;7.28;91.04
67279;DHT22;54193;53.746;10.058;2023-10-19T07:49:54;7.34;91.33
67279;DHT22;54193;53.746;10.058;2023-10-19T07:52:52;7.27;91.38
67279;DHT22;54193;53.746;10.058;2023-10-19T07:55:39;7.31;91.32
67279;DHT22;54193;53.746;10.058;2023-10-19T07:58:24;7.28;91.53
67279;DHT22;54193;53.746;10.058;2023-10-19T08:01:11;7.23;91.57
67279;DHT22;54193;53.746;10.058;2023-10-19T08:03:57;7.20;91.46
67279;DHT22;54193;53.746;10.058;2023-10-19T08:06:50;7.26;91.47
67279;DHT22;54193;53.746;10.058;2023-10-19T08:09:35;7.27;91.52
67279;DHT22;54193;53.746;10.058;2023-10-19T08:12:21;7.26;91.66
67279;DHT22;54193;53.746;10.058;2023-10-19T08:15:09;7.32;91.70
67279;DHT22;54193;53.746;10.058;2023-10-19T08:17:56;7.31;91.60
67279;DHT22;54193;53.746;10.058;2023-10-19T08:20:42;7.28;91.59
67279;DHT22;54193;53.746;10.058;2023-10-19T08:23:30;7.28;91.87
67279;DHT22;54193;53.746;10.058;2023-10-19T08:26:17;7.30;91.63
67279;DHT22;54193;53.746;10.058;2023-10-19T08:29:02;7.27;91.52
67279;DHT22;54193;53.746;10.058;2023-10-19T08:31:53;7.26;91.63
67279;DHT22;54193;53.746;10.058;2023-10-19T08:34:38;7.24;91.82
67279;DHT22;54193;53.746;10.058;2023-10-19T08:37:25;7.16;91.48
67279;DHT22;54193;53.746;10.058;2023-10-19T08:40:11;7.30;91.72
67279;DHT22;54193;53.746;10.058;2023-10-19T08:43:00;7.31;91.78
67279;DHT22;54193;53.746;10.058;2023-10-19T08:45:46;7.18;91.63
67279;DHT22;54193;53.746;10.058;2023-10-19T08:48:35;7.20;92.08
67279;DHT22;54193;53.746;10.058;2023-10-19T08:51:22;7.13;91.78
67279;DHT22;54193;53.746;10.058;2023-10-19T08:54:14;7.18;92.16
67279;DHT22;54193;53.746;10.058;2023-10-19T08:57:00;7.16;92.12
67279;DHT22;54193;53.746;10.058;2023-10-19T08:59:46;7.20;92.71
67279;DHT22;54193;53.746;10.058;2023-10-19T09:02:32;7.14;92.45
67279;DHT22;54193;53.746;10.058;2023-10-19T09:05:19;7.21;92.39
67279;DHT22;54193;53.746;10.058;2023-10-19T09:08:08;7.16;92.57
67279;DHT22;54193;53.746;10.058;2023-10-19T09:10:55;7.11;93.03
67279;DHT22;54193;53.746;10.058;2023-10-19T09:16:30;7.18;92.95
67279;DHT22;54193;53.746;10.058;2023-10-19T09:19:16;7.23;92.73
67279;DHT22;54193;53.746;10.058;2023-10-19T09:22:02;7.14;92.83
67279;DHT22;54193;53.746;10.058;2023-10-19T09:24:54;7.14;92.85
67279;DHT22;54193;53.746;10.058;2023-10-19T09:27:41;7.17;92.91
67279;DHT22;54193;53.746;10.058;2023-10-19T09:30:27;7.26;93.08
67279;DHT22;54193;53.746;10.058;2023-10-19T09:33:19;7.11;92.82
67279;DHT22;54193;53.746;10.058;2023-10-19T09:36:09;7.14;92.96
67279;DHT22;54193;53.746;10.058;2023-10-19T09:38:58;7.17;93.35
67279;DHT22;54193;53.746;10.058;2023-10-19T09:41:45;7.17;93.40
67279;DHT22;54193;53.746;10.058;2023-10-19T09:44:34;7.17;93.16
67279;DHT22;54193;53.746;10.058;2023-10-19T09:47:26;7.20;93.20
67279;DHT22;54193;53.746;10.058;2023-10-19T09:50:16;7.24;93.31
67279;DHT22;54193;53.746;10.058;2023-10-19T09:53:03;7.27;93.37
67279;DHT22;54193;53.746;10.058;2023-10-19T09:55:51;7.34;93.20
67279;DHT22;54193;53.746;10.058;2023-10-19T09:58:44;7.40;93.28
67279;DHT22;54193;53.746;10.058;2023-10-19T10:02:06;7.24;93.05
67279;DHT22;54193;53.746;10.058;2023-10-19T10:04:52;7.38;93.13
67279;DHT22;54193;53.746;10.058;2023-10-19T10:07:39;7.38;92.89
67279;DHT22;54193;53.746;10.058;2023-10-19T10:10:25;7.48;93.08
67279;DHT22;54193;53.746;10.058;2023-10-19T10:16:16;7.62;92.93
67279;DHT22;54193;53.746;10.058;2023-10-19T10:19:04;7.58;92.93
67279;DHT22;54193;53.746;10.058;2023-10-19T10:22:09;7.58;93.13
67279;DHT22;54193;53.746;10.058;2023-10-19T10:24:59;7.56;93.38
67279;DHT22;54193;53.746;10.058;2023-10-19T10:27:51;7.58;93.50
67279;DHT22;54193;53.746;10.058;2023-10-19T10:30:37;7.62;93.26
67279;DHT22;54193;53.746;10.058;2023-10-19T10:33:42;7.58;93.35
67279;DHT22;54193;53.746;10.058;2023-10-19T10:36:57;7.55;93.31
67279;DHT22;54193;53.746;10.058;2023-10-19T10:39:43;7.44;93.17
67279;DHT22;54193;53.746;10.058;2023-10-19T10:42:30;7.54;93.17
67279;DHT22;54193;53.746;10.058;2023-10-19T10:45:19;7.48;93.48
67279;DHT22;54193;53.746;10.058;2023-10-19T10:48:13;7.45;93.43
67279;DHT22;54193;53.746;10.058;2023-10-19T10:50:59;7.45;93.38
67279;DHT22;54193;53.746;10.058;2023-10-19T10:53:52;7.35;93.25
67279;DHT22;54193;53.746;10.058;2023-10-19T10:56:40;7.32;93.03
67279;DHT22;54193;53.746;10.058;2023-10-19T10:59:27;7.24;93.00
67279;DHT22;54193;53.746;10.058;2023-10-19T11:02:19;7.37;93.15
67279;DHT22;54193;53.746;10.058;2023-10-19T11:05:07;7.40;93.15
67279;DHT22;54193;53.746;10.058;2023-10-19T11:08:11;7.45;92.89
67279;DHT22;54193;53.746;10.058;2023-10-19T11:11:07;7.55;93.17
67279;DHT22;54193;53.746;10.058;2023-10-19T11:14:08;7.41;92.82
67279;DHT22;54193;53.746;10.058;2023-10-19T11:16:54;7.47;93.23
67279;DHT22;54193;53.746;10.058;2023-10-19T11:19:40;7.48;92.87
67279;DHT22;54193;53.746;10.058;2023-10-19T11:22:26;7.58;93.03
67279;DHT22;54193;53.746;10.058;2023-10-19T11:25:38;7.51;92.83
67279;DHT22;54193;53.746;10.058;2023-10-19T11:28:24;7.54;92.54
67279;DHT22;54193;53.746;10.058;2023-10-19T11:31:18;7.58;92.99
67279;DHT22;54193;53.746;10.058;2023-10-19T11:34:04;7.56;92.99
67279;DHT22;54193;53.746;10.058;2023-10-19T11:36:56;7.58;93.11
67279;DHT22;54193;53.746;10.058;2023-10-19T11:39:42;7.59;93.50
67279;DHT22;54193;53.746;10.058;2023-10-19T11:42:28;7.55;92.98
67279;DHT22;54193;53.746;10.058;2023-10-19T11:45:13;7.37;92.75
67279;DHT22;54193;53.746;10.058;2023-10-19T11:47:59;7.56;93.45
67279;DHT22;54193;53.746;10.058;2023-10-19T11:50:45;7.52;93.11
67279;DHT22;54193;53.746;10.058;2023-10-19T11:53:33;7.58;93.33
67279;DHT22;54193;53.746;10.058;2023-10-19T11:56:19;7.61;93.43
67279;DHT22;54193;53.746;10.058;2023-10-19T11:59:06;7.59;93.33
67279;DHT22;54193;53.746;10.058;2023-10-19T12:01:53;7.58;93.61
67279;DHT22;54193;53.746;10.058;2023-10-19T12:04:40;7.69;93.79
67279;DHT22;54193;53.746;10.058;2023-10-19T12:07:25;7.59;93.97
67279;DHT22;54193;53.746;10.058;2023-10-19T12:10:11;7.64;93.93
67279;DHT22;54193;53.746;10.058;2023-10-19T12:12:57;7.71;94.07
67279;DHT22;54193;53.746;10.058;2023-10-19T12:15:43;7.56;93.67
67279;DHT22;54193;53.746;10.058;2023-10-19T12:18:36;7.68;94.02
67279;DHT22;54193;53.746;10.058;2023-10-19T12:21:23;7.75;93.92
67279;DHT22;54193;53.746;10.058;2023-10-19T12:24:13;7.79;93.86
67279;DHT22;54193;53.746;10.058;2023-10-19T12:27:00;7.79;93.69
67279;DHT22;54193;53.746;10.058;2023-10-19T12:29:47;7.79;93.98
67279;DHT22;54193;53.746;10.058;2023-10-19T12:32:33;7.73;93.62
67279;DHT22;54193;53.746;10.058;2023-10-19T12:35:21;7.65;93.87
67279;DHT22;54193;53.746;10.058;2023-10-19T12:38:12;7.73;93.98
67279;DHT22;54193;53.746;10.058;2023-10-19T12:41:01;7.87;93.85
67279;DHT22;54193;53.746;10.058;2023-10-19T12:43:48;7.75;93.64
67279;DHT22;54193;53.746;10.058;2023-10-19T12:46:33;7.81;93.60
67279;DHT22;54193;53.746;10.058;2023-10-19T12:49:22;7.72;93.69
67279;DHT22;54193;53.746;10.058;2023-10-19T12:52:11;7.79;93.82
67279;DHT22;54193;53.746;10.058;2023-10-19T12:54:57;7.81;93.49
67279;DHT22;54193;53.746;10.058;2023-10-19T12:57:46;7.82;93.42
67279;DHT22;54193;53.746;10.058;2023-10-19T13:00:32;7.86;93.39
67279;DHT22;54193;53.746;10.058;2023-10-19T13:03:21;7.85;93.18
67279;DHT22;54193;53.746;10.058;2023-10-19T13:06:08;7.92;93.24
67279;DHT22;54193;53.746;10.058;2023-10-19T13:08:54;7.90;93.06
67279;DHT22;54193;53.746;10.058;2023-10-19T13:11:39;7.93;92.99
67279;DHT22;54193;53.746;10.058;2023-10-19T13:14:29;7.87;92.92
67279;DHT22;54193;53.746;10.058;2023-10-19T13:17:14;7.89;92.85
67279;DHT22;54193;53.746;10.058;2023-10-19T13:20:00;7.92;92.88
67279;DHT22;54193;53.746;10.058;2023-10-19T13:22:46;8.00;92.79
67279;DHT22;54193;53.746;10.058;2023-10-19T13:25:33;7.93;92.57
67279;DHT22;54193;53.746;10.058;2023-10-19T13:28:27;8.00;92.50
67279;DHT22;54193;53.746;10.058;2023-10-19T13:31:13;8.03;92.37
67279;DHT22;54193;53.746;10.058;2023-10-19T13:34:01;7.96;92.58
67279;DHT22;54193;53.746;10.058;2023-10-19T13:36:48;8.07;92.61
67279;DHT22;54193;53.746;10.058;2023-10-19T13:39:36;8.03;92.65
67279;DHT22;54193;53.746;10.058;2023-10-19T13:42:25;8.11;92.47
67279;DHT22;54193;53.746;10.058;2023-10-19T13:45:10;8.09;92.22
67279;DHT22;54193;53.746;10.058;2023-10-19T13:48:03;8.09;92.46
67279;DHT22;54193;53.746;10.058;2023-10-19T13:50:49;8.02;93.05
67279;DHT22;54193;53.746;10.058;2023-10-19T13:53:35;7.99;92.36
67279;DHT22;54193;53.746;10.058;2023-10-19T13:56:20;8.10;92.35
67279;DHT22;54193;53.746;10.058;2023-10-19T13:59:06;8.07;92.28
67279;DHT22;54193;53.746;10.058;2023-10-19T14:01:52;8.14;92.37
67279;DHT22;54193;53.746;10.058;2023-10-19T14:04:37;8.06;92.36
67279;DHT22;54193;53.746;10.058;2023-10-19T14:07:23;8.06;92.42
67279;DHT22;54193;53.746;10.058;2023-10-19T14:10:09;8.14;92.27
67279;DHT22;54193;53.746;10.058;2023-10-19T14:12:58;8.04;92.31
67279;DHT22;54193;53.746;10.058;2023-10-19T14:15:44;8.06;92.03
67279;DHT22;54193;53.746;10.058;2023-10-19T14:18:29;8.11;91.98
67279;DHT22;54193;53.746;10.058;2023-10-19T14:21:17;8.10;92.07
67279;DHT22;54193;53.746;10.058;2023-10-19T14:24:04;8.11;92.37
67279;DHT22;54193;53.746;10.058;2023-10-19T14:26:53;8.10;92.21
67279;DHT22;54193;53.746;10.058;2023-10-19T14:29:39;8.16;92.16
67279;DHT22;54193;53.746;10.058;2023-10-19T14:32:25;8.13;92.29
67279;DHT22;54193;53.746;10.058;2023-10-19T14:35:13;8.17;92.44
67279;DHT22;54193;53.746;10.058;2023-10-19T14:38:00;8.13;92.61
67279;DHT22;54193;53.746;10.058;2023-10-19T14:40:47;8.16;92.34
67279;DHT22;54193;53.746;10.058;2023-10-19T14:43:34;8.13;92.22
67279;DHT22;54193;53.746;10.058;2023-10-19T14:46:19;8.14;92.43
67279;DHT22;54193;53.746;10.058;2023-10-19T14:49:05;8.11;92.42
67279;DHT22;54193;53.746;10.058;2023-10-19T14:51:52;8.07;92.61
67279;DHT22;54193;53.746;10.058;2023-10-19T14:54:37;8.13;92.84
67279;DHT22;54193;53.746;10.058;2023-10-19T14:57:23;8.10;92.76
67279;DHT22;54193;53.746;10.058;2023-10-19T15:00:12;8.04;92.93
67279;DHT22;54193;53.746;10.058;2023-10-19T15:03:07;8.03;93.01
67279;DHT22;54193;53.746;10.058;2023-10-19T15:05:53;8.09;93.10
67279;DHT22;54193;53.746;10.058;2023-10-19T15:08:40;8.04;93.16
67279;DHT22;54193;53.746;10.058;2023-10-19T15:11:25;8.19;93.37
67279;DHT22;54193;53.746;10.058;2023-10-19T15:14:12;8.21;93.09
67279;DHT22;54193;53.746;10.058;2023-10-19T15:16:57;8.27;93.45
67279;DHT22;54193;53.746;10.058;2023-10-19T15:19:43;8.27;93.64
67279;DHT22;54193;53.746;10.058;2023-10-19T15:22:28;8.17;92.95
67279;DHT22;54193;53.746;10.058;2023-10-19T15:25:14;8.30;93.19
67279;DHT22;54193;53.746;10.058;2023-10-19T15:28:04;8.21;93.79
67279;DHT22;54193;53.746;10.058;2023-10-19T15:30:50;8.14;93.32
67279;DHT22;54193;53.746;10.058;2023-10-19T15:33:36;8.09;93.28
67279;DHT22;54193;53.746;10.058;2023-10-19T15:36:22;8.16;93.42
67279;DHT22;54193;53.746;10.058;2023-10-19T15:39:07;8.16;93.29
67279;DHT22;54193;53.746;10.058;2023-10-19T15:41:56;8.30;93.63
67279;DHT22;54193;53.746;10.058;2023-10-19T15:44:42;8.11;92.93
67279;DHT22;54193;53.746;10.058;2023-10-19T15:47:28;8.07;93.22
67279;DHT22;54193;53.746;10.058;2023-10-19T15:50:15;8.02;93.14
67279;DHT22;54193;53.746;10.058;2023-10-19T15:53:02;8.06;93.27
67279;DHT22;54193;53.746;10.058;2023-10-19T15:55:48;8.07;93.61
67279;DHT22;54193;53.746;10.058;2023-10-19T15:58:35;7.93;93.33
67279;DHT22;54193;53.746;10.058;2023-10-19T16:01:22;8.09;93.62
67279;DHT22;54193;53.746;10.058;2023-10-19T16:04:07;7.97;93.28
67279;DHT22;54193;53.746;10.058;2023-10-19T16:06:53;8.04;93.29
67279;DHT22;54193;53.746;10.058;2023-10-19T16:09:39;8.09;93.05
67279;DHT22;54193;53.746;10.058;2023-10-19T16:12:25;8.03;93.07
67279;DHT22;54193;53.746;10.058;2023-10-19T16:15:12;8.26;93.32
67279;DHT22;54193;53.746;10.058;2023-10-19T16:17:58;8.11;93.20
67279;DHT22;54193;53.746;10.058;2023-10-19T16:20:43;8.13;93.17
67279;DHT22;54193;53.746;10.058;2023-10-19T16:23:29;8.09;93.39
67279;DHT22;54193;53.746;10.058;2023-10-19T16:26:15;8.09;93.30
67279;DHT22;54193;53.746;10.058;2023-10-19T16:29:01;7.97;93.38
67279;DHT22;54193;53.746;10.058;2023-10-19T16:31:50;8.03;93.13
67279;DHT22;54193;53.746;10.058;2023-10-19T16:34:36;8.00;93.32
67279;DHT22;54193;53.746;10.058;2023-10-19T16:37:22;8.03;93.44
67279;DHT22;54193;53.746;10.058;2023-10-19T16:40:08;8.03;93.29
67279;DHT22;54193;53.746;10.058;2023-10-19T16:42:54;7.99;93.29
67279;DHT22;54193;53.746;10.058;2023-10-19T16:45:40;7.99;93.28
67279;DHT22;54193;53.746;10.058;2023-10-19T16:48:25;8.00;93.79
67279;DHT22;54193;53.746;10.058;2023-10-19T16:51:11;8.03;93.77
67279;DHT22;54193;53.746;10.058;2023-10-19T16:53:56;8.02;93.67
67279;DHT22;54193;53.746;10.058;2023-10-19T16:56:42;7.94;93.83
67279;DHT22;54193;53.746;10.058;2023-10-19T16:59:34;7.96;94.11
67279;DHT22;54193;53.746;10.058;2023-10-19T17:02:20;7.93;93.89
67279;DHT22;54193;53.746;10.058;2023-10-19T17:05:06;7.92;93.66
67279;DHT22;54193;53.746;10.058;2023-10-19T17:07:52;7.94;93.89
67279;DHT22;54193;53.746;10.058;2023-10-19T17:10:39;7.94;93.88
67279;DHT22;54193;53.746;10.058;2023-10-19T17:13:24;7.87;93.94
67279;DHT22;54193;53.746;10.058;2023-10-19T17:16:11;7.99;94.16
67279;DHT22;54193;53.746;10.058;2023-10-19T17:18:57;7.96;93.89
67279;DHT22;54193;53.746;10.058;2023-10-19T17:21:42;7.97;94.00
67279;DHT22;54193;53.746;10.058;2023-10-19T17:24:28;7.97;94.00
67279;DHT22;54193;53.746;10.058;2023-10-19T17:27:14;7.96;93.94
67279;DHT22;54193;53.746;10.058;2023-10-19T17:30:01;7.92;93.73
67279;DHT22;54193;53.746;10.058;2023-10-19T17:32:47;7.97;93.75
67279;DHT22;54193;53.746;10.058;2023-10-19T17:35:35;7.97;93.86
67279;DHT22;54193;53.746;10.058;2023-10-19T17:38:21;8.02;93.80
67279;DHT22;54193;53.746;10.058;2023-10-19T17:41:06;7.99;93.71
67279;DHT22;54193;53.746;10.058;2023-10-19T17:43:52;8.04;93.90